sensor_id;sensor_type;location;lat;lon;timestamp;pressure;altitude;pressure_sealevel;temperature;humidity
11712;BME280;5912;51.034;6.984;2024-03-08T00:01:47;56676.84;;;-142.13;50.52
11712;BME280;5912;51.034;6.984;2024-03-08T00:04:13;56710.91;;;-142.13;51.35
11712;BME280;5912;51.034;6.984;2024-03-08T00:06:41;56678.84;;;-142.13;51.56
11712;BME280;5912;51.034;6.984;2024-03-08T00:09:06;56712.91;;;-142.13;51.67
11712;BME280;5912;51.034;6.984;2024-03-08T00:11:33;56712.91;;;-142.13;51.44
11712;BME280;5912;51.034;6.984;2024-03-08T00:14:00;56700.91;;;-142.13;51.70
11712;BME280;5912;51.034;6.984;2024-03-08T00:16:25;56690.88;;;-142.13;51.72
11712;BME280;5912;51.034;6.984;2024-03-08T00:18:50;56708.91;;;-142.13;51.79
11712;BME280;5912;51.034;6.984;2024-03-08T00:21:16;56720.94;;;-142.13;51.95
11712;BME280;5912;51.034;6.984;2024-03-08T00:23:41;56696.88;;;-142.13;51.58
11712;BME280;5912;51.034;6.984;2024-03-08T00:26:07;56728.94;;;-142.13;52.26
11712;BME280;5912;51.034;6.984;2024-03-08T00:28:32;56712.91;;;-142.13;52.69
11712;BME280;5912;51.034;6.984;2024-03-08T00:30:59;56714.91;;;-142.13;52.22
11712;BME280;5912;51.034;6.984;2024-03-08T00:33:25;56714.91;;;-142.13;52.42
11712;BME280;5912;51.034;6.984;2024-03-08T00:35:52;56690.88;;;-142.13;51.84
11712;BME280;5912;51.034;6.984;2024-03-08T00:38:18;56728.94;;;-142.13;52.84
11712;BME280;5912;51.034;6.984;2024-03-08T00:40:44;56728.94;;;-142.13;52.89
11712;BME280;5912;51.034;6.984;2024-03-08T00:43:09;56714.91;;;-142.13;53.22
11712;BME280;5912;51.034;6.984;2024-03-08T00:45:34;56684.88;;;-142.13;53.25
11712;BME280;5912;51.034;6.984;2024-03-08T00:48:00;56710.91;;;-142.13;53.30
11712;BME280;5912;51.034;6.984;2024-03-08T00:50:25;56712.91;;;-142.13;53.16
11712;BME280;5912;51.034;6.984;2024-03-08T00:52:51;56708.91;;;-142.13;52.96
11712;BME280;5912;51.034;6.984;2024-03-08T00:55:16;56724.94;;;-142.13;53.65
11712;BME280;5912;51.034;6.984;2024-03-08T00:57:42;56704.91;;;-142.13;53.48
11712;BME280;5912;51.034;6.984;2024-03-08T01:00:08;56696.88;;;-142.13;53.82
11712;BME280;5912;51.034;6.984;2024-03-08T01:02:40;56724.94;;;-142.13;53.60
11712;BME280;5912;51.034;6.984;2024-03-08T01:05:06;56746.97;;;-142.13;54.08
11712;BME280;5912;51.034;6.984;2024-03-08T01:07:34;56704.91;;;-142.13;53.19
11712;BME280;5912;51.034;6.984;2024-03-08T01:10:00;56686.88;;;-142.13;53.19
11712;BME280;5912;51.034;6.984;2024-03-08T01:12:26;56722.94;;;-142.13;53.57
11712;BME280;5912;51.034;6.984;2024-03-08T01:14:51;56708.91;;;-142.13;53.42
11712;BME280;5912;51.034;6.984;2024-03-08T01:17:16;56702.91;;;-142.13;53.94
11712;BME280;5912;51.034;6.984;2024-03-08T01:19:48;56706.91;;;-142.13;53.96
11712;BME280;5912;51.034;6.984;2024-03-08T01:22:13;56716.91;;;-142.13;54.07
11712;BME280;5912;51.034;6.984;2024-03-08T01:24:39;56740.97;;;-142.13;54.34
11712;BME280;5912;51.034;6.984;2024-03-08T01:27:04;56708.91;;;-142.13;54.46
11712;BME280;5912;51.034;6.984;2024-03-08T01:29:30;56730.94;;;-142.13;54.38
11712;BME280;5912;51.034;6.984;2024-03-08T01:31:56;56714.91;;;-142.13;53.95
11712;BME280;5912;51.034;6.984;2024-03-08T01:34:22;56716.91;;;-142.13;54.55
11712;BME280;5912;51.034;6.984;2024-03-08T01:36:48;56748.97;;;-142.13;54.39
11712;BME280;5912;51.034;6.984;2024-03-08T01:39:14;56712.91;;;-142.13;54.35
11712;BME280;5912;51.034;6.984;2024-03-08T01:41:39;56716.91;;;-142.13;54.84
11712;BME280;5912;51.034;6.984;2024-03-08T01:44:05;56716.91;;;-142.13;54.71
11712;BME280;5912;51.034;6.984;2024-03-08T01:46:33;56704.91;;;-142.13;54.48
11712;BME280;5912;51.034;6.984;2024-03-08T01:48:59;56700.91;;;-142.13;54.27
11712;BME280;5912;51.034;6.984;2024-03-08T01:51:29;56692.88;;;-142.13;54.18
11712;BME280;5912;51.034;6.984;2024-03-08T01:53:56;56736.94;;;-142.13;54.29
11712;BME280;5912;51.034;6.984;2024-03-08T01:56:23;56684.88;;;-142.13;54.20
11712;BME280;5912;51.034;6.984;2024-03-08T01:58:50;56730.94;;;-142.13;54.58
11712;BME280;5912;51.034;6.984;2024-03-08T02:01:16;56712.91;;;-142.13;54.88
11712;BME280;5912;51.034;6.984;2024-03-08T02:03:42;56702.91;;;-142.13;54.30
11712;BME280;5912;51.034;6.984;2024-03-08T02:06:11;56724.94;;;-142.13;54.82
11712;BME280;5912;51.034;6.984;2024-03-08T02:08:37;56738.97;;;-142.13;54.22
11712;BME280;5912;51.034;6.984;2024-03-08T02:11:03;56712.91;;;-142.13;53.77
11712;BME280;5912;51.034;6.984;2024-03-08T02:13:29;56728.94;;;-142.13;53.92
11712;BME280;5912;51.034;6.984;2024-03-08T02:15:59;56696.88;;;-142.13;54.40
11712;BME280;5912;51.034;6.984;2024-03-08T02:18:25;56698.88;;;-142.13;53.61
11712;BME280;5912;51.034;6.984;2024-03-08T02:20:52;56728.94;;;-142.13;53.10
11712;BME280;5912;51.034;6.984;2024-03-08T02:23:21;56744.97;;;-142.13;53.54
11712;BME280;5912;51.034;6.984;2024-03-08T02:25:47;56692.88;;;-142.13;53.69
11712;BME280;5912;51.034;6.984;2024-03-08T02:28:13;56720.94;;;-142.13;53.95
11712;BME280;5912;51.034;6.984;2024-03-08T02:30:39;56738.97;;;-142.13;53.75
11712;BME280;5912;51.034;6.984;2024-03-08T02:33:05;56738.97;;;-142.13;53.89
11712;BME280;5912;51.034;6.984;2024-03-08T02:35:31;56736.94;;;-142.13;53.40
11712;BME280;5912;51.034;6.984;2024-03-08T02:37:57;56706.91;;;-142.13;52.87
11712;BME280;5912;51.034;6.984;2024-03-08T02:40:23;56710.91;;;-142.13;52.63
11712;BME280;5912;51.034;6.984;2024-03-08T02:42:49;56700.91;;;-142.13;52.42
11712;BME280;5912;51.034;6.984;2024-03-08T02:45:14;56660.81;;;-142.13;53.08
11712;BME280;5912;51.034;6.984;2024-03-08T02:47:39;56650.81;;;-142.13;52.95
11712;BME280;5912;51.034;6.984;2024-03-08T02:50:05;56716.91;;;-142.13;52.51
11712;BME280;5912;51.034;6.984;2024-03-08T02:52:33;56694.88;;;-142.13;52.64
11712;BME280;5912;51.034;6.984;2024-03-08T02:54:59;56698.88;;;-142.13;52.18
11712;BME280;5912;51.034;6.984;2024-03-08T02:57:24;56734.94;;;-142.13;53.11
11712;BME280;5912;51.034;6.984;2024-03-08T02:59:50;56702.91;;;-142.13;52.44
11712;BME280;5912;51.034;6.984;2024-03-08T03:02:15;56740.97;;;-142.13;52.72
11712;BME280;5912;51.034;6.984;2024-03-08T03:04:41;56676.84;;;-142.13;52.82
11712;BME280;5912;51.034;6.984;2024-03-08T03:07:08;56696.88;;;-142.13;52.76
11712;BME280;5912;51.034;6.984;2024-03-08T03:09:33;56734.94;;;-142.13;53.37
11712;BME280;5912;51.034;6.984;2024-03-08T03:12:08;56712.91;;;-142.13;53.28
11712;BME280;5912;51.034;6.984;2024-03-08T03:14:37;56724.94;;;-142.13;53.13
11712;BME280;5912;51.034;6.984;2024-03-08T03:17:04;56736.94;;;-142.13;53.06
11712;BME280;5912;51.034;6.984;2024-03-08T03:19:30;56688.88;;;-142.13;52.47
11712;BME280;5912;51.034;6.984;2024-03-08T03:21:55;56688.88;;;-142.13;52.84
11712;BME280;5912;51.034;6.984;2024-03-08T03:24:21;56700.91;;;-142.13;52.54
11712;BME280;5912;51.034;6.984;2024-03-08T03:27:05;56708.91;;;-142.13;52.13
11712;BME280;5912;51.034;6.984;2024-03-08T03:29:39;56680.84;;;-142.13;51.94
11712;BME280;5912;51.034;6.984;2024-03-08T03:32:14;56724.94;;;-142.13;52.49
11712;BME280;5912;51.034;6.984;2024-03-08T03:34:40;56726.94;;;-142.13;52.79
11712;BME280;5912;51.034;6.984;2024-03-08T03:37:06;56718.91;;;-142.13;52.80
11712;BME280;5912;51.034;6.984;2024-03-08T03:39:37;56750.97;;;-142.13;53.39
11712;BME280;5912;51.034;6.984;2024-03-08T03:42:16;56744.97;;;-142.13;54.25
11712;BME280;5912;51.034;6.984;2024-03-08T03:44:44;56694.88;;;-142.13;54.20
11712;BME280;5912;51.034;6.984;2024-03-08T03:47:10;56732.94;;;-142.13;54.01
11712;BME280;5912;51.034;6.984;2024-03-08T03:49:36;56726.94;;;-142.13;53.58
11712;BME280;5912;51.034;6.984;2024-03-08T03:52:01;56724.94;;;-142.13;53.52
11712;BME280;5912;51.034;6.984;2024-03-08T03:54:27;56690.88;;;-142.13;53.34
11712;BME280;5912;51.034;6.984;2024-03-08T03:56:55;56720.94;;;-142.13;53.04
11712;BME280;5912;51.034;6.984;2024-03-08T03:59:20;56716.91;;;-142.13;52.82
11712;BME280;5912;51.034;6.984;2024-03-08T04:01:46;56722.94;;;-142.13;53.30
11712;BME280;5912;51.034;6.984;2024-03-08T04:04:11;56724.94;;;-142.13;53.84
11712;BME280;5912;51.034;6.984;2024-03-08T04:06:37;56704.91;;;-142.13;53.68
11712;BME280;5912;51.034;6.984;2024-03-08T04:09:03;56740.97;;;-142.13;53.46
11712;BME280;5912;51.034;6.984;2024-03-08T04:11:29;56712.91;;;-142.13;53.36
11712;BME280;5912;51.034;6.984;2024-03-08T04:13:55;56746.97;;;-142.13;53.72
11712;BME280;5912;51.034;6.984;2024-03-08T04:16:21;56728.94;;;-142.13;53.64
11712;BME280;5912;51.034;6.984;2024-03-08T04:18:46;56726.94;;;-142.13;53.08
11712;BME280;5912;51.034;6.984;2024-03-08T04:21:13;56692.88;;;-142.13;52.99
11712;BME280;5912;51.034;6.984;2024-03-08T04:23:38;56718.91;;;-142.13;53.19
11712;BME280;5912;51.034;6.984;2024-03-08T04:26:03;56700.91;;;-142.13;52.89
11712;BME280;5912;51.034;6.984;2024-03-08T04:28:30;56680.84;;;-142.13;52.75
11712;BME280;5912;51.034;6.984;2024-03-08T04:30:56;56702.91;;;-142.13;52.53
11712;BME280;5912;51.034;6.984;2024-03-08T04:33:22;56728.94;;;-142.13;52.70
11712;BME280;5912;51.034;6.984;2024-03-08T04:35:48;56686.88;;;-142.13;52.89
11712;BME280;5912;51.034;6.984;2024-03-08T04:38:14;56704.91;;;-142.13;53.36
11712;BME280;5912;51.034;6.984;2024-03-08T04:40:40;56704.91;;;-142.13;53.51
11712;BME280;5912;51.034;6.984;2024-03-08T04:43:06;56730.94;;;-142.13;53.30
11712;BME280;5912;51.034;6.984;2024-03-08T04:45:33;56742.97;;;-142.13;54.13
11712;BME280;5912;51.034;6.984;2024-03-08T04:47:59;56714.91;;;-142.13;54.17
11712;BME280;5912;51.034;6.984;2024-03-08T04:50:24;56722.94;;;-142.13;53.67
11712;BME280;5912;51.034;6.984;2024-03-08T04:52:49;56724.94;;;-142.13;53.63
11712;BME280;5912;51.034;6.984;2024-03-08T04:55:14;56734.94;;;-142.13;54.68
11712;BME280;5912;51.034;6.984;2024-03-08T04:57:40;56736.94;;;-142.13;55.39
11712;BME280;5912;51.034;6.984;2024-03-08T05:00:07;56720.94;;;-142.13;55.24
11712;BME280;5912;51.034;6.984;2024-03-08T05:02:39;56748.97;;;-142.13;54.62
11712;BME280;5912;51.034;6.984;2024-03-08T05:05:05;56716.91;;;-142.13;54.59
11712;BME280;5912;51.034;6.984;2024-03-08T05:07:40;56740.97;;;-142.13;53.70
11712;BME280;5912;51.034;6.984;2024-03-08T05:10:06;56676.84;;;-142.13;53.65
11712;BME280;5912;51.034;6.984;2024-03-08T05:12:35;56700.91;;;-142.13;53.59
11712;BME280;5912;51.034;6.984;2024-03-08T05:15:01;56744.97;;;-142.13;53.22
11712;BME280;5912;51.034;6.984;2024-03-08T05:17:26;56712.91;;;-142.13;52.87
11712;BME280;5912;51.034;6.984;2024-03-08T05:19:51;56700.91;;;-142.13;53.02
11712;BME280;5912;51.034;6.984;2024-03-08T05:22:17;56712.91;;;-142.13;52.62
11712;BME280;5912;51.034;6.984;2024-03-08T05:24:44;56777.03;;;-142.13;53.67
11712;BME280;5912;51.034;6.984;2024-03-08T05:27:09;56724.94;;;-142.13;54.39
11712;BME280;5912;51.034;6.984;2024-03-08T05:29:34;56704.91;;;-142.13;52.87
11712;BME280;5912;51.034;6.984;2024-03-08T05:32:00;56696.88;;;-142.13;53.03
11712;BME280;5912;51.034;6.984;2024-03-08T05:34:26;56742.97;;;-142.13;53.25
11712;BME280;5912;51.034;6.984;2024-03-08T05:36:53;56714.91;;;-142.13;53.26
11712;BME280;5912;51.034;6.984;2024-03-08T05:39:19;56716.91;;;-142.13;52.83
11712;BME280;5912;51.034;6.984;2024-03-08T05:41:45;56680.84;;;-142.13;52.89
11712;BME280;5912;51.034;6.984;2024-03-08T05:44:11;56700.91;;;-142.13;52.58
11712;BME280;5912;51.034;6.984;2024-03-08T05:46:37;56773.00;;;-142.13;52.39
11712;BME280;5912;51.034;6.984;2024-03-08T05:49:03;56700.91;;;-142.13;52.24
11712;BME280;5912;51.034;6.984;2024-03-08T05:51:32;56757.00;;;-142.13;52.50
11712;BME280;5912;51.034;6.984;2024-03-08T05:54:00;56692.88;;;-142.13;52.58
11712;BME280;5912;51.034;6.984;2024-03-08T05:56:28;56678.84;;;-142.13;53.24
11712;BME280;5912;51.034;6.984;2024-03-08T05:58:54;56708.91;;;-142.13;52.79
11712;BME280;5912;51.034;6.984;2024-03-08T06:01:19;56692.88;;;-142.13;52.34
11712;BME280;5912;51.034;6.984;2024-03-08T06:03:45;56712.91;;;-142.13;52.78
11712;BME280;5912;51.034;6.984;2024-03-08T06:06:13;56738.97;;;-142.13;52.96
11712;BME280;5912;51.034;6.984;2024-03-08T06:08:39;56696.88;;;-142.13;52.77
11712;BME280;5912;51.034;6.984;2024-03-08T06:11:05;56616.75;;;-142.13;53.25
11712;BME280;5912;51.034;6.984;2024-03-08T06:13:33;56712.91;;;-142.13;53.10
11712;BME280;5912;51.034;6.984;2024-03-08T06:15:59;56700.91;;;-142.13;53.13
11712;BME280;5912;51.034;6.984;2024-03-08T06:18:25;56726.94;;;-142.13;53.72
11712;BME280;5912;51.034;6.984;2024-03-08T06:20:51;56720.94;;;-142.13;53.18
11712;BME280;5912;51.034;6.984;2024-03-08T06:23:16;56696.88;;;-142.13;53.29
11712;BME280;5912;51.034;6.984;2024-03-08T06:25:46;56690.88;;;-142.13;53.18
11712;BME280;5912;51.034;6.984;2024-03-08T06:28:11;56740.97;;;-142.13;52.82
11712;BME280;5912;51.034;6.984;2024-03-08T06:30:37;56678.84;;;-142.13;52.61
11712;BME280;5912;51.034;6.984;2024-03-08T06:33:02;56680.84;;;-142.13;53.40
11712;BME280;5912;51.034;6.984;2024-03-08T06:35:31;56710.91;;;-142.13;53.09
11712;BME280;5912;51.034;6.984;2024-03-08T06:38:05;56682.88;;;-142.13;52.54
11712;BME280;5912;51.034;6.984;2024-03-08T06:40:31;56716.91;;;-142.13;53.30
11712;BME280;5912;51.034;6.984;2024-03-08T06:42:56;56738.97;;;-142.13;52.31
11712;BME280;5912;51.034;6.984;2024-03-08T06:45:21;56718.91;;;-142.13;52.65
11712;BME280;5912;51.034;6.984;2024-03-08T06:47:48;56662.81;;;-142.13;52.56
11712;BME280;5912;51.034;6.984;2024-03-08T06:50:14;56692.88;;;-142.13;52.58
11712;BME280;5912;51.034;6.984;2024-03-08T06:52:40;56676.84;;;-142.13;52.87
11712;BME280;5912;51.034;6.984;2024-03-08T06:55:08;56672.84;;;-142.13;53.03
11712;BME280;5912;51.034;6.984;2024-03-08T06:57:40;56696.88;;;-142.13;51.70
11712;BME280;5912;51.034;6.984;2024-03-08T07:00:08;56702.91;;;-142.13;52.01
11712;BME280;5912;51.034;6.984;2024-03-08T07:02:35;56672.84;;;-142.13;52.23
11712;BME280;5912;51.034;6.984;2024-03-08T07:05:01;56700.91;;;-142.13;52.16
11712;BME280;5912;51.034;6.984;2024-03-08T07:07:27;56690.88;;;-142.13;52.45
11712;BME280;5912;51.034;6.984;2024-03-08T07:09:52;56662.81;;;-142.13;52.01
11712;BME280;5912;51.034;6.984;2024-03-08T07:12:17;56672.84;;;-142.13;51.08
11712;BME280;5912;51.034;6.984;2024-03-08T07:14:43;56672.84;;;-142.13;51.96
11712;BME280;5912;51.034;6.984;2024-03-08T07:17:11;56706.91;;;-142.13;50.71
11712;BME280;5912;51.034;6.984;2024-03-08T07:19:37;56656.81;;;-142.13;50.73
11712;BME280;5912;51.034;6.984;2024-03-08T07:22:04;56660.81;;;-142.13;50.36
11712;BME280;5912;51.034;6.984;2024-03-08T07:24:29;56656.81;;;-142.13;50.46
11712;BME280;5912;51.034;6.984;2024-03-08T07:27:13;56674.84;;;-142.13;49.60
11712;BME280;5912;51.034;6.984;2024-03-08T07:29:38;56632.78;;;-142.13;48.84
11712;BME280;5912;51.034;6.984;2024-03-08T07:32:04;56640.78;;;-142.13;48.17
11712;BME280;5912;51.034;6.984;2024-03-08T07:34:47;56644.81;;;-142.13;48.71
11712;BME280;5912;51.034;6.984;2024-03-08T07:37:14;56644.81;;;-142.13;47.83
11712;BME280;5912;51.034;6.984;2024-03-08T07:39:39;56620.75;;;-142.13;48.03
11712;BME280;5912;51.034;6.984;2024-03-08T07:42:36;56634.78;;;-142.13;47.43
11712;BME280;5912;51.034;6.984;2024-03-08T07:45:02;56592.72;;;-142.13;46.75
11712;BME280;5912;51.034;6.984;2024-03-08T07:47:29;56624.75;;;-142.13;45.65
11712;BME280;5912;51.034;6.984;2024-03-08T07:49:57;56630.78;;;-142.13;45.72
11712;BME280;5912;51.034;6.984;2024-03-08T07:52:25;56588.69;;;-142.13;44.92
11712;BME280;5912;51.034;6.984;2024-03-08T07:54:51;56630.78;;;-142.13;44.37
11712;BME280;5912;51.034;6.984;2024-03-08T07:57:16;56604.72;;;-142.13;43.94
11712;BME280;5912;51.034;6.984;2024-03-08T07:59:41;56582.69;;;-142.13;42.91
11712;BME280;5912;51.034;6.984;2024-03-08T08:02:07;56600.72;;;-142.13;43.04
11712;BME280;5912;51.034;6.984;2024-03-08T08:04:32;56596.72;;;-142.13;43.00
11712;BME280;5912;51.034;6.984;2024-03-08T08:06:57;56616.75;;;-142.13;42.72
11712;BME280;5912;51.034;6.984;2024-03-08T08:09:23;56588.69;;;-142.13;41.68
11712;BME280;5912;51.034;6.984;2024-03-08T08:11:54;56546.63;;;-142.13;41.82
11712;BME280;5912;51.034;6.984;2024-03-08T08:14:20;56568.66;;;-142.13;40.65
11712;BME280;5912;51.034;6.984;2024-03-08T08:16:46;56556.66;;;-142.13;40.85
11712;BME280;5912;51.034;6.984;2024-03-08T08:19:14;56552.66;;;-142.13;40.22
11712;BME280;5912;51.034;6.984;2024-03-08T08:21:39;56558.66;;;-142.13;39.85
11712;BME280;5912;51.034;6.984;2024-03-08T08:24:05;56572.69;;;-142.13;40.18
11712;BME280;5912;51.034;6.984;2024-03-08T08:26:31;56584.69;;;-142.13;40.68
11712;BME280;5912;51.034;6.984;2024-03-08T08:28:58;56568.66;;;-142.13;39.84
11712;BME280;5912;51.034;6.984;2024-03-08T08:31:23;56550.63;;;-142.13;38.91
11712;BME280;5912;51.034;6.984;2024-03-08T08:33:49;56518.59;;;-142.13;38.90
11712;BME280;5912;51.034;6.984;2024-03-08T08:36:15;56548.63;;;-142.13;38.33
11712;BME280;5912;51.034;6.984;2024-03-08T08:38:40;56528.59;;;-142.13;38.57
11712;BME280;5912;51.034;6.984;2024-03-08T08:41:09;56524.59;;;-142.13;37.86
11712;BME280;5912;51.034;6.984;2024-03-08T08:43:36;56584.69;;;-142.13;38.52
11712;BME280;5912;51.034;6.984;2024-03-08T08:46:01;56488.53;;;-142.13;37.66
11712;BME280;5912;51.034;6.984;2024-03-08T08:48:27;56506.56;;;-142.13;37.25
11712;BME280;5912;51.034;6.984;2024-03-08T08:50:54;56514.59;;;-142.13;37.10
11712;BME280;5912;51.034;6.984;2024-03-08T08:53:20;56674.84;;;-142.13;37.19
11712;BME280;5912;51.034;6.984;2024-03-08T08:55:46;56508.56;;;-142.13;37.26
11712;BME280;5912;51.034;6.984;2024-03-08T08:58:11;56494.56;;;-142.13;37.29
11712;BME280;5912;51.034;6.984;2024-03-08T13:42:59;56300.25;;;-142.13;28.00
11712;BME280;5912;51.034;6.984;2024-03-08T13:45:26;56324.28;;;-142.13;28.68
11712;BME280;5912;51.034;6.984;2024-03-08T13:47:53;56296.22;;;-142.13;28.17
11712;BME280;5912;51.034;6.984;2024-03-08T13:50:19;56286.22;;;-142.13;27.85
11712;BME280;5912;51.034;6.984;2024-03-08T13:52:48;56250.16;;;-142.13;27.97
11712;BME280;5912;51.034;6.984;2024-03-08T13:55:23;56240.16;;;-142.13;27.42
11712;BME280;5912;51.034;6.984;2024-03-08T13:57:50;56238.13;;;-142.13;27.26
11712;BME280;5912;51.034;6.984;2024-03-08T14:00:18;56232.13;;;-142.13;26.96
11712;BME280;5912;51.034;6.984;2024-03-08T14:02:47;56218.09;;;-142.13;27.09
11712;BME280;5912;51.034;6.984;2024-03-08T14:05:14;56254.16;;;-142.13;27.80
11712;BME280;5912;51.034;6.984;2024-03-08T14:07:41;56248.16;;;-142.13;27.22
11712;BME280;5912;51.034;6.984;2024-03-08T14:10:07;56252.16;;;-142.13;27.74
11712;BME280;5912;51.034;6.984;2024-03-08T14:12:35;56250.16;;;-142.13;27.66
11712;BME280;5912;51.034;6.984;2024-03-08T14:15:01;56244.16;;;-142.13;27.48
11712;BME280;5912;51.034;6.984;2024-03-08T14:17:26;56272.19;;;-142.13;28.00
11712;BME280;5912;51.034;6.984;2024-03-08T14:19:53;56254.16;;;-142.13;28.01
11712;BME280;5912;51.034;6.984;2024-03-08T14:22:19;56280.22;;;-142.13;27.77
11712;BME280;5912;51.034;6.984;2024-03-08T14:24:45;56274.19;;;-142.13;28.19
11712;BME280;5912;51.034;6.984;2024-03-08T14:27:11;56254.16;;;-142.13;27.68
11712;BME280;5912;51.034;6.984;2024-03-08T14:29:38;56242.16;;;-142.13;27.87
11712;BME280;5912;51.034;6.984;2024-03-08T14:32:07;56276.19;;;-142.13;27.80
11712;BME280;5912;51.034;6.984;2024-03-08T14:34:33;56288.22;;;-142.13;28.02
11712;BME280;5912;51.034;6.984;2024-03-08T14:36:59;56280.22;;;-142.13;28.03
11712;BME280;5912;51.034;6.984;2024-03-08T14:39:25;56260.19;;;-142.13;28.54
11712;BME280;5912;51.034;6.984;2024-03-08T14:41:55;56260.19;;;-142.13;28.48
11712;BME280;5912;51.034;6.984;2024-03-08T14:44:21;56284.22;;;-142.13;28.60
11712;BME280;5912;51.034;6.984;2024-03-08T14:46:47;56332.28;;;-142.13;29.20
11712;BME280;5912;51.034;6.984;2024-03-08T14:49:13;56316.25;;;-142.13;29.67
11712;BME280;5912;51.034;6.984;2024-03-08T14:51:38;56328.28;;;-142.13;29.77
11712;BME280;5912;51.034;6.984;2024-03-08T14:54:04;56326.28;;;-142.13;29.73
11712;BME280;5912;51.034;6.984;2024-03-08T14:56:33;56344.31;;;-142.13;29.81
11712;BME280;5912;51.034;6.984;2024-03-08T14:59:00;56348.31;;;-142.13;30.12
11712;BME280;5912;51.034;6.984;2024-03-08T15:01:26;56392.38;;;-142.13;30.80
11712;BME280;5912;51.034;6.984;2024-03-08T15:03:55;56378.38;;;-142.13;31.18
11712;BME280;5912;51.034;6.984;2024-03-08T15:06:21;56412.41;;;-142.13;32.17
11712;BME280;5912;51.034;6.984;2024-03-08T15:08:47;56418.44;;;-142.13;32.19
11712;BME280;5912;51.034;6.984;2024-03-08T15:11:13;56424.44;;;-142.13;32.60
11712;BME280;5912;51.034;6.984;2024-03-08T15:13:49;56406.41;;;-142.13;32.48
11712;BME280;5912;51.034;6.984;2024-03-08T15:16:18;56416.44;;;-142.13;32.70
11712;BME280;5912;51.034;6.984;2024-03-08T15:18:45;56440.47;;;-142.13;32.97
11712;BME280;5912;51.034;6.984;2024-03-08T15:21:17;56436.47;;;-142.13;33.14
11712;BME280;5912;51.034;6.984;2024-03-08T15:23:46;56436.47;;;-142.13;32.94
11712;BME280;5912;51.034;6.984;2024-03-08T15:26:17;56456.50;;;-142.13;33.32
11712;BME280;5912;51.034;6.984;2024-03-08T15:28:43;56426.44;;;-142.13;33.26
11712;BME280;5912;51.034;6.984;2024-03-08T15:31:11;56440.47;;;-142.13;33.46
11712;BME280;5912;51.034;6.984;2024-03-08T15:33:39;56436.47;;;-142.13;33.49
11712;BME280;5912;51.034;6.984;2024-03-08T15:36:16;56452.47;;;-142.13;33.46
11712;BME280;5912;51.034;6.984;2024-03-08T15:38:42;56424.44;;;-142.13;33.43
11712;BME280;5912;51.034;6.984;2024-03-08T15:41:14;56342.31;;;-142.13;33.88
11712;BME280;5912;51.034;6.984;2024-03-08T15:43:40;56464.50;;;-142.13;33.93
11712;BME280;5912;51.034;6.984;2024-03-08T15:46:06;56444.47;;;-142.13;34.07
11712;BME280;5912;51.034;6.984;2024-03-08T15:48:33;56432.44;;;-142.13;33.94
11712;BME280;5912;51.034;6.984;2024-03-08T15:51:01;56460.50;;;-142.13;33.63
11712;BME280;5912;51.034;6.984;2024-03-08T15:53:35;56426.44;;;-142.13;33.86
11712;BME280;5912;51.034;6.984;2024-03-08T15:56:02;56440.47;;;-142.13;34.19
11712;BME280;5912;51.034;6.984;2024-03-08T15:58:29;56428.44;;;-142.13;33.41
11712;BME280;5912;51.034;6.984;2024-03-08T16:00:57;56456.50;;;-142.13;33.72
11712;BME280;5912;51.034;6.984;2024-03-08T16:03:25;56484.53;;;-142.13;33.76
11712;BME280;5912;51.034;6.984;2024-03-08T16:05:52;56444.47;;;-142.13;33.64
11712;BME280;5912;51.034;6.984;2024-03-08T16:08:19;56458.50;;;-142.13;33.85
11712;BME280;5912;51.034;6.984;2024-03-08T16:10:52;56442.47;;;-142.13;33.79
11712;BME280;5912;51.034;6.984;2024-03-08T16:13:26;56440.47;;;-142.13;33.71
11712;BME280;5912;51.034;6.984;2024-03-08T16:15:55;56456.50;;;-142.13;33.97
11712;BME280;5912;51.034;6.984;2024-03-08T16:18:21;56456.50;;;-142.13;34.17
11712;BME280;5912;51.034;6.984;2024-03-08T16:20:50;56480.53;;;-142.13;34.01
11712;BME280;5912;51.034;6.984;2024-03-08T16:23:16;56484.53;;;-142.13;33.87
11712;BME280;5912;51.034;6.984;2024-03-08T16:25:43;56444.47;;;-142.13;34.08
11712;BME280;5912;51.034;6.984;2024-03-08T16:28:18;56464.50;;;-142.13;34.47
11712;BME280;5912;51.034;6.984;2024-03-08T16:30:44;56442.47;;;-142.13;33.91
11712;BME280;5912;51.034;6.984;2024-03-08T16:33:16;56460.50;;;-142.13;34.10
11712;BME280;5912;51.034;6.984;2024-03-08T16:35:43;56448.47;;;-142.13;33.63
11712;BME280;5912;51.034;6.984;2024-03-08T16:38:10;56484.53;;;-142.13;33.89
11712;BME280;5912;51.034;6.984;2024-03-08T16:40:42;56424.44;;;-142.13;33.74
11712;BME280;5912;51.034;6.984;2024-03-08T16:43:08;56472.50;;;-142.13;33.76
11712;BME280;5912;51.034;6.984;2024-03-08T16:45:37;56460.50;;;-142.13;34.16
11712;BME280;5912;51.034;6.984;2024-03-08T16:48:07;56468.50;;;-142.13;33.81
11712;BME280;5912;51.034;6.984;2024-03-08T16:50:33;56488.53;;;-142.13;34.05
11712;BME280;5912;51.034;6.984;2024-03-08T16:53:00;56456.50;;;-142.13;33.79
11712;BME280;5912;51.034;6.984;2024-03-08T16:55:26;56490.53;;;-142.13;33.99
11712;BME280;5912;51.034;6.984;2024-03-08T16:57:52;56470.50;;;-142.13;34.08
11712;BME280;5912;51.034;6.984;2024-03-08T17:00:23;56476.53;;;-142.13;34.32
11712;BME280;5912;51.034;6.984;2024-03-08T17:03:01;56474.53;;;-142.13;34.10
11712;BME280;5912;51.034;6.984;2024-03-08T17:05:30;56466.50;;;-142.13;34.11
11712;BME280;5912;51.034;6.984;2024-03-08T17:08:00;56460.50;;;-142.13;34.45
11712;BME280;5912;51.034;6.984;2024-03-08T17:10:33;56486.53;;;-142.13;34.36
11712;BME280;5912;51.034;6.984;2024-03-08T17:13:00;56472.50;;;-142.13;34.28
11712;BME280;5912;51.034;6.984;2024-03-08T17:15:30;56474.53;;;-142.13;34.55
11712;BME280;5912;51.034;6.984;2024-03-08T17:17:58;56484.53;;;-142.13;34.79
11712;BME280;5912;51.034;6.984;2024-03-08T17:20:32;56486.53;;;-142.13;34.94
11712;BME280;5912;51.034;6.984;2024-03-08T17:23:04;56478.53;;;-142.13;34.86
11712;BME280;5912;51.034;6.984;2024-03-08T17:25:31;56476.53;;;-142.13;34.83
11712;BME280;5912;51.034;6.984;2024-03-08T17:27:57;56464.50;;;-142.13;35.12
11712;BME280;5912;51.034;6.984;2024-03-08T17:30:34;56470.50;;;-142.13;35.36
11712;BME280;5912;51.034;6.984;2024-03-08T17:33:04;56508.56;;;-142.13;35.13